sensor_id;sensor_type;location;lat;lon;timestamp;P1;durP1;ratioP1;P2;durP2;ratioP2
24157;SDS011;12316;50.904;4.200;2022-10-31T00:01:10;18.58;;;10.63;;
24157;SDS011;12316;50.904;4.200;2022-10-31T00:03:40;18.27;;;10.03;;
24157;SDS011;12316;50.904;4.200;2022-10-31T00:06:06;18.17;;;10.27;;
24157;SDS011;12316;50.904;4.200;2022-10-31T00:08:32;18.38;;;10.40;;
24157;SDS011;12316;50.904;4.200;2022-10-31T00:10:57;13.55;;;9.95;;
24157;SDS011;12316;50.904;4.200;2022-10-31T00:13:23;16.05;;;10.57;;
24157;SDS011;12316;50.904;4.200;2022-10-31T00:15:48;15.07;;;9.60;;
24157;SDS011;12316;50.904;4.200;2022-10-31T00:18:14;15.15;;;9.25;;
24157;SDS011;12316;50.904;4.200;2022-10-31T00:20:39;13.93;;;8.88;;
24157;SDS011;12316;50.904;4.200;2022-10-31T00:23:05;14.18;;;9.93;;
24157;SDS011;12316;50.904;4.200;2022-10-31T00:25:38;19.30;;;10.05;;
24157;SDS011;12316;50.904;4.200;2022-10-31T00:28:05;17.15;;;10.18;;
24157;SDS011;12316;50.904;4.200;2022-10-31T00:30:32;15.27;;;9.45;;
24157;SDS011;12316;50.904;4.200;2022-10-31T00:32:58;15.02;;;9.27;;
24157;SDS011;12316;50.904;4.200;2022-10-31T00:35:23;15.65;;;9.15;;
24157;SDS011;12316;50.904;4.200;2022-10-31T00:37:49;15.40;;;9.52;;
24157;SDS011;12316;50.904;4.200;2022-10-31T00:40:15;15.55;;;10.13;;
24157;SDS011;12316;50.904;4.200;2022-10-31T00:42:41;17.45;;;10.50;;
24157;SDS011;12316;50.904;4.200;2022-10-31T00:45:10;19.48;;;10.55;;
24157;SDS011;12316;50.904;4.200;2022-10-31T00:47:35;12.25;;;9.35;;
24157;SDS011;12316;50.904;4.200;2022-10-31T00:50:02;16.52;;;9.15;;
24157;SDS011;12316;50.904;4.200;2022-10-31T00:52:31;13.73;;;9.90;;
24157;SDS011;12316;50.904;4.200;2022-10-31T00:54:56;14.10;;;10.00;;
24157;SDS011;12316;50.904;4.200;2022-10-31T00:57:22;13.40;;;9.27;;
24157;SDS011;12316;50.904;4.200;2022-10-31T00:59:48;12.57;;;9.13;;
24157;SDS011;12316;50.904;4.200;2022-10-31T01:02:13;13.68;;;9.40;;
24157;SDS011;12316;50.904;4.200;2022-10-31T01:04:39;16.27;;;9.68;;
24157;SDS011;12316;50.904;4.200;2022-10-31T01:07:04;11.80;;;9.35;;
24157;SDS011;12316;50.904;4.200;2022-10-31T01:09:30;11.52;;;8.43;;
24157;SDS011;12316;50.904;4.200;2022-10-31T01:11:55;13.70;;;8.95;;
24157;SDS011;12316;50.904;4.200;2022-10-31T01:14:21;14.57;;;9.73;;
24157;SDS011;12316;50.904;4.200;2022-10-31T01:16:46;15.00;;;9.98;;
24157;SDS011;12316;50.904;4.200;2022-10-31T01:19:13;14.60;;;9.38;;
24157;SDS011;12316;50.904;4.200;2022-10-31T01:21:38;12.65;;;9.05;;
24157;SDS011;12316;50.904;4.200;2022-10-31T01:24:04;15.02;;;9.13;;
24157;SDS011;12316;50.904;4.200;2022-10-31T01:26:30;16.42;;;11.63;;
24157;SDS011;12316;50.904;4.200;2022-10-31T01:28:58;15.93;;;10.20;;
24157;SDS011;12316;50.904;4.200;2022-10-31T01:31:26;15.43;;;10.35;;
24157;SDS011;12316;50.904;4.200;2022-10-31T01:33:54;15.00;;;10.60;;
24157;SDS011;12316;50.904;4.200;2022-10-31T01:36:21;16.00;;;10.80;;
24157;SDS011;12316;50.904;4.200;2022-10-31T01:38:56;20.48;;;10.50;;
24157;SDS011;12316;50.904;4.200;2022-10-31T01:41:27;16.83;;;11.55;;
24157;SDS011;12316;50.904;4.200;2022-10-31T01:46:24;21.70;;;12.77;;
24157;SDS011;12316;50.904;4.200;2022-10-31T01:51:21;20.67;;;10.90;;
24157;SDS011;12316;50.904;4.200;2022-10-31T01:53:50;18.27;;;11.68;;
24157;SDS011;12316;50.904;4.200;2022-10-31T01:56:20;13.25;;;10.35;;
24157;SDS011;12316;50.904;4.200;2022-10-31T01:58:46;14.82;;;10.45;;
24157;SDS011;12316;50.904;4.200;2022-10-31T02:01:12;17.48;;;11.55;;
24157;SDS011;12316;50.904;4.200;2022-10-31T02:03:39;18.23;;;11.85;;
24157;SDS011;12316;50.904;4.200;2022-10-31T02:06:06;16.10;;;11.02;;
24157;SDS011;12316;50.904;4.200;2022-10-31T02:08:35;19.15;;;12.35;;
24157;SDS011;12316;50.904;4.200;2022-10-31T02:11:04;19.05;;;11.20;;
24157;SDS011;12316;50.904;4.200;2022-10-31T02:13:31;16.98;;;10.77;;
24157;SDS011;12316;50.904;4.200;2022-10-31T02:15:59;21.02;;;11.77;;
24157;SDS011;12316;50.904;4.200;2022-10-31T02:18:26;17.90;;;11.07;;
24157;SDS011;12316;50.904;4.200;2022-10-31T02:23:59;14.05;;;10.27;;
24157;SDS011;12316;50.904;4.200;2022-10-31T02:37:51;16.58;;;10.45;;
24157;SDS011;12316;50.904;4.200;2022-10-31T02:40:48;14.93;;;9.68;;
24157;SDS011;12316;50.904;4.200;2022-10-31T02:46:11;14.70;;;10.55;;
24157;SDS011;12316;50.904;4.200;2022-10-31T02:48:43;16.80;;;10.35;;
24157;SDS011;12316;50.904;4.200;2022-10-31T02:51:10;17.95;;;9.82;;
24157;SDS011;12316;50.904;4.200;2022-10-31T02:53:37;15.30;;;10.40;;
24157;SDS011;12316;50.904;4.200;2022-10-31T02:56:08;14.80;;;9.93;;
24157;SDS011;12316;50.904;4.200;2022-10-31T02:58:41;15.13;;;10.20;;
24157;SDS011;12316;50.904;4.200;2022-10-31T03:09:41;13.82;;;10.07;;
24157;SDS011;12316;50.904;4.200;2022-10-31T03:12:21;15.77;;;10.32;;
24157;SDS011;12316;50.904;4.200;2022-10-31T03:20:20;15.20;;;10.18;;
24157;SDS011;12316;50.904;4.200;2022-10-31T03:22:51;15.43;;;10.80;;
24157;SDS011;12316;50.904;4.200;2022-10-31T03:25:19;13.13;;;9.82;;
24157;SDS011;12316;50.904;4.200;2022-10-31T03:27:44;14.18;;;9.93;;
24157;SDS011;12316;50.904;4.200;2022-10-31T03:30:12;14.23;;;9.55;;
24157;SDS011;12316;50.904;4.200;2022-10-31T03:32:43;15.05;;;9.50;;
24157;SDS011;12316;50.904;4.200;2022-10-31T03:35:15;14.52;;;9.18;;
24157;SDS011;12316;50.904;4.200;2022-10-31T03:37:43;15.95;;;9.65;;
24157;SDS011;12316;50.904;4.200;2022-10-31T03:40:11;19.23;;;11.25;;
24157;SDS011;12316;50.904;4.200;2022-10-31T03:42:40;18.98;;;10.57;;
24157;SDS011;12316;50.904;4.200;2022-10-31T03:45:14;16.50;;;11.30;;
24157;SDS011;12316;50.904;4.200;2022-10-31T03:47:47;14.63;;;9.80;;
24157;SDS011;12316;50.904;4.200;2022-10-31T03:50:13;15.30;;;10.07;;
24157;SDS011;12316;50.904;4.200;2022-10-31T03:53:24;15.23;;;10.35;;
24157;SDS011;12316;50.904;4.200;2022-10-31T03:55:40;19.42;;;10.82;;
24157;SDS011;12316;50.904;4.200;2022-10-31T03:58:14;14.45;;;10.73;;
24157;SDS011;12316;50.904;4.200;2022-10-31T04:00:47;19.73;;;12.00;;
24157;SDS011;12316;50.904;4.200;2022-10-31T04:03:21;22.45;;;12.40;;
24157;SDS011;12316;50.904;4.200;2022-10-31T04:05:53;21.42;;;12.05;;
24157;SDS011;12316;50.904;4.200;2022-10-31T04:08:23;17.23;;;10.65;;
24157;SDS011;12316;50.904;4.200;2022-10-31T04:10:51;18.63;;;10.48;;
24157;SDS011;12316;50.904;4.200;2022-10-31T04:13:20;14.63;;;10.38;;
24157;SDS011;12316;50.904;4.200;2022-10-31T04:15:53;16.45;;;10.25;;
24157;SDS011;12316;50.904;4.200;2022-10-31T04:18:19;18.27;;;9.63;;
24157;SDS011;12316;50.904;4.200;2022-10-31T04:20:46;17.02;;;9.80;;
24157;SDS011;12316;50.904;4.200;2022-10-31T04:23:24;12.45;;;9.20;;
24157;SDS011;12316;50.904;4.200;2022-10-31T04:25:51;14.63;;;10.15;;
24157;SDS011;12316;50.904;4.200;2022-10-31T04:28:17;12.18;;;9.40;;
24157;SDS011;12316;50.904;4.200;2022-10-31T04:30:43;15.93;;;9.88;;
24157;SDS011;12316;50.904;4.200;2022-10-31T04:33:09;15.13;;;10.05;;
24157;SDS011;12316;50.904;4.200;2022-10-31T04:35:34;14.98;;;9.70;;
24157;SDS011;12316;50.904;4.200;2022-10-31T04:38:00;13.55;;;9.30;;
24157;SDS011;12316;50.904;4.200;2022-10-31T04:40:26;15.75;;;9.85;;
24157;SDS011;12316;50.904;4.200;2022-10-31T04:42:51;15.75;;;10.77;;
24157;SDS011;12316;50.904;4.200;2022-10-31T04:45:17;17.25;;;10.85;;
24157;SDS011;12316;50.904;4.200;2022-10-31T04:47:42;16.17;;;10.75;;
24157;SDS011;12316;50.904;4.200;2022-10-31T04:50:08;15.13;;;9.50;;
24157;SDS011;12316;50.904;4.200;2022-10-31T04:52:40;16.33;;;11.35;;
24157;SDS011;12316;50.904;4.200;2022-10-31T04:55:07;16.35;;;11.02;;
24157;SDS011;12316;50.904;4.200;2022-10-31T04:57:40;15.35;;;10.27;;
24157;SDS011;12316;50.904;4.200;2022-10-31T05:00:16;16.35;;;10.68;;
24157;SDS011;12316;50.904;4.200;2022-10-31T05:02:44;17.48;;;10.90;;
24157;SDS011;12316;50.904;4.200;2022-10-31T05:05:09;13.23;;;9.88;;
24157;SDS011;12316;50.904;4.200;2022-10-31T05:07:39;19.50;;;10.93;;
24157;SDS011;12316;50.904;4.200;2022-10-31T05:10:05;15.98;;;10.00;;
24157;SDS011;12316;50.904;4.200;2022-10-31T05:12:31;15.35;;;10.07;;
24157;SDS011;12316;50.904;4.200;2022-10-31T05:14:57;14.55;;;9.93;;
24157;SDS011;12316;50.904;4.200;2022-10-31T05:17:22;13.60;;;10.30;;
24157;SDS011;12316;50.904;4.200;2022-10-31T05:19:48;12.07;;;9.65;;
24157;SDS011;12316;50.904;4.200;2022-10-31T05:22:13;17.08;;;11.50;;
24157;SDS011;12316;50.904;4.200;2022-10-31T05:24:39;16.73;;;10.95;;
24157;SDS011;12316;50.904;4.200;2022-10-31T05:27:04;13.80;;;10.05;;
24157;SDS011;12316;50.904;4.200;2022-10-31T05:29:30;14.10;;;9.57;;
24157;SDS011;12316;50.904;4.200;2022-10-31T05:31:58;16.98;;;9.93;;
24157;SDS011;12316;50.904;4.200;2022-10-31T05:34:24;15.13;;;11.00;;
24157;SDS011;12316;50.904;4.200;2022-10-31T05:36:49;16.40;;;10.88;;
24157;SDS011;12316;50.904;4.200;2022-10-31T05:39:15;14.65;;;10.52;;
24157;SDS011;12316;50.904;4.200;2022-10-31T05:41:40;14.70;;;9.93;;
24157;SDS011;12316;50.904;4.200;2022-10-31T05:44:06;14.60;;;10.70;;
24157;SDS011;12316;50.904;4.200;2022-10-31T05:46:31;13.10;;;10.43;;
24157;SDS011;12316;50.904;4.200;2022-10-31T05:48:57;14.02;;;10.98;;
24157;SDS011;12316;50.904;4.200;2022-10-31T05:51:23;15.13;;;10.93;;
24157;SDS011;12316;50.904;4.200;2022-10-31T05:53:48;13.50;;;10.15;;
24157;SDS011;12316;50.904;4.200;2022-10-31T05:56:14;12.88;;;9.88;;
24157;SDS011;12316;50.904;4.200;2022-10-31T05:58:39;17.48;;;10.77;;
24157;SDS011;12316;50.904;4.200;2022-10-31T06:01:05;16.27;;;10.93;;
24157;SDS011;12316;50.904;4.200;2022-10-31T06:03:30;16.48;;;10.27;;
24157;SDS011;12316;50.904;4.200;2022-10-31T06:05:56;11.27;;;9.55;;
24157;SDS011;12316;50.904;4.200;2022-10-31T06:08:21;18.77;;;12.65;;
24157;SDS011;12316;50.904;4.200;2022-10-31T06:10:47;17.42;;;11.52;;
24157;SDS011;12316;50.904;4.200;2022-10-31T06:13:13;16.98;;;10.93;;
24157;SDS011;12316;50.904;4.200;2022-10-31T06:15:38;14.13;;;10.98;;
24157;SDS011;12316;50.904;4.200;2022-10-31T06:18:04;13.82;;;9.65;;
24157;SDS011;12316;50.904;4.200;2022-10-31T06:20:30;14.98;;;10.52;;
24157;SDS011;12316;50.904;4.200;2022-10-31T06:22:56;17.65;;;10.77;;
24157;SDS011;12316;50.904;4.200;2022-10-31T06:25:22;13.70;;;10.23;;
24157;SDS011;12316;50.904;4.200;2022-10-31T06:27:48;16.88;;;11.82;;
24157;SDS011;12316;50.904;4.200;2022-10-31T06:30:14;16.95;;;10.95;;
24157;SDS011;12316;50.904;4.200;2022-10-31T06:32:39;21.20;;;12.02;;
24157;SDS011;12316;50.904;4.200;2022-10-31T06:35:05;16.33;;;11.23;;
24157;SDS011;12316;50.904;4.200;2022-10-31T06:37:31;17.27;;;11.35;;
24157;SDS011;12316;50.904;4.200;2022-10-31T06:39:56;20.25;;;12.48;;
24157;SDS011;12316;50.904;4.200;2022-10-31T06:42:22;18.25;;;12.98;;
24157;SDS011;12316;50.904;4.200;2022-10-31T06:44:48;19.85;;;12.23;;
24157;SDS011;12316;50.904;4.200;2022-10-31T06:47:13;16.25;;;12.13;;
24157;SDS011;12316;50.904;4.200;2022-10-31T06:49:39;21.77;;;12.32;;
24157;SDS011;12316;50.904;4.200;2022-10-31T06:52:04;21.30;;;12.48;;
24157;SDS011;12316;50.904;4.200;2022-10-31T06:54:30;20.42;;;12.70;;
24157;SDS011;12316;50.904;4.200;2022-10-31T06:56:55;20.20;;;12.73;;
24157;SDS011;12316;50.904;4.200;2022-10-31T06:59:21;17.83;;;11.27;;
24157;SDS011;12316;50.904;4.200;2022-10-31T07:01:47;18.40;;;13.05;;
24157;SDS011;12316;50.904;4.200;2022-10-31T07:04:12;23.42;;;13.15;;
24157;SDS011;12316;50.904;4.200;2022-10-31T07:06:38;19.35;;;12.57;;
24157;SDS011;12316;50.904;4.200;2022-10-31T07:09:04;22.65;;;13.27;;
24157;SDS011;12316;50.904;4.200;2022-10-31T07:11:29;22.40;;;13.73;;
24157;SDS011;12316;50.904;4.200;2022-10-31T07:13:55;21.35;;;12.68;;
24157;SDS011;12316;50.904;4.200;2022-10-31T07:16:21;18.27;;;12.20;;
24157;SDS011;12316;50.904;4.200;2022-10-31T07:18:46;19.48;;;13.00;;
24157;SDS011;12316;50.904;4.200;2022-10-31T07:21:12;18.90;;;12.30;;
24157;SDS011;12316;50.904;4.200;2022-10-31T07:23:37;20.23;;;13.52;;
24157;SDS011;12316;50.904;4.200;2022-10-31T07:26:03;21.73;;;13.88;;
24157;SDS011;12316;50.904;4.200;2022-10-31T07:28:29;22.63;;;12.52;;
24157;SDS011;12316;50.904;4.200;2022-10-31T07:30:56;19.63;;;13.35;;
24157;SDS011;12316;50.904;4.200;2022-10-31T07:33:22;21.17;;;13.52;;
24157;SDS011;12316;50.904;4.200;2022-10-31T07:35:51;22.85;;;14.30;;
24157;SDS011;12316;50.904;4.200;2022-10-31T07:38:17;24.85;;;13.43;;
24157;SDS011;12316;50.904;4.200;2022-10-31T07:40:42;17.48;;;12.15;;
24157;SDS011;12316;50.904;4.200;2022-10-31T07:43:08;20.92;;;13.38;;
24157;SDS011;12316;50.904;4.200;2022-10-31T07:45:36;20.67;;;13.27;;
24157;SDS011;12316;50.904;4.200;2022-10-31T07:48:01;19.23;;;13.18;;
24157;SDS011;12316;50.904;4.200;2022-10-31T07:50:28;19.42;;;13.63;;
24157;SDS011;12316;50.904;4.200;2022-10-31T07:52:58;18.08;;;13.00;;
24157;SDS011;12316;50.904;4.200;2022-10-31T07:55:24;27.15;;;13.98;;
24157;SDS011;12316;50.904;4.200;2022-10-31T07:57:59;24.00;;;13.77;;
24157;SDS011;12316;50.904;4.200;2022-10-31T08:00:26;22.40;;;13.75;;
24157;SDS011;12316;50.904;4.200;2022-10-31T08:05:25;20.60;;;13.38;;
24157;SDS011;12316;50.904;4.200;2022-10-31T08:07:50;19.88;;;13.20;;
24157;SDS011;12316;50.904;4.200;2022-10-31T08:10:16;27.95;;;14.57;;
24157;SDS011;12316;50.904;4.200;2022-10-31T08:12:42;28.30;;;14.90;;
24157;SDS011;12316;50.904;4.200;2022-10-31T08:15:07;21.17;;;13.82;;
24157;SDS011;12316;50.904;4.200;2022-10-31T08:17:37;22.75;;;14.32;;
24157;SDS011;12316;50.904;4.200;2022-10-31T08:20:05;19.65;;;12.98;;
24157;SDS011;12316;50.904;4.200;2022-10-31T08:22:31;20.67;;;11.93;;
24157;SDS011;12316;50.904;4.200;2022-10-31T08:24:57;17.00;;;11.65;;
24157;SDS011;12316;50.904;4.200;2022-10-31T08:27:22;18.52;;;11.77;;
24157;SDS011;12316;50.904;4.200;2022-10-31T08:29:48;20.73;;;13.23;;
24157;SDS011;12316;50.904;4.200;2022-10-31T08:32:14;20.25;;;13.05;;
24157;SDS011;12316;50.904;4.200;2022-10-31T08:34:39;17.08;;;10.98;;
24157;SDS011;12316;50.904;4.200;2022-10-31T08:37:05;18.38;;;12.43;;
24157;SDS011;12316;50.904;4.200;2022-10-31T08:39:30;19.90;;;12.25;;
24157;SDS011;12316;50.904;4.200;2022-10-31T08:41:56;21.75;;;12.93;;
24157;SDS011;12316;50.904;4.200;2022-10-31T08:44:21;17.27;;;11.98;;
24157;SDS011;12316;50.904;4.200;2022-10-31T08:46:47;18.42;;;12.20;;
24157;SDS011;12316;50.904;4.200;2022-10-31T08:49:12;15.27;;;11.02;;
24157;SDS011;12316;50.904;4.200;2022-10-31T08:51:38;18.77;;;12.13;;
24157;SDS011;12316;50.904;4.200;2022-10-31T08:54:04;17.30;;;11.95;;
24157;SDS011;12316;50.904;4.200;2022-10-31T08:56:29;16.77;;;11.07;;
24157;SDS011;12316;50.904;4.200;2022-10-31T08:58:55;20.58;;;11.90;;
24157;SDS011;12316;50.904;4.200;2022-10-31T09:01:21;19.17;;;11.48;;
24157;SDS011;12316;50.904;4.200;2022-10-31T09:03:47;16.85;;;12.00;;
24157;SDS011;12316;50.904;4.200;2022-10-31T09:06:13;16.05;;;11.82;;
24157;SDS011;12316;50.904;4.200;2022-10-31T09:08:39;18.10;;;11.48;;
24157;SDS011;12316;50.904;4.200;2022-10-31T09:11:04;15.38;;;11.00;;
24157;SDS011;12316;50.904;4.200;2022-10-31T09:13:31;16.20;;;11.05;;
24157;SDS011;12316;50.904;4.200;2022-10-31T09:15:57;18.35;;;11.52;;
24157;SDS011;12316;50.904;4.200;2022-10-31T09:18:24;21.08;;;13.15;;
24157;SDS011;12316;50.904;4.200;2022-10-31T09:20:49;14.27;;;10.20;;
24157;SDS011;12316;50.904;4.200;2022-10-31T09:23:16;14.25;;;11.43;;
24157;SDS011;12316;50.904;4.200;2022-10-31T09:25:43;20.40;;;12.30;;
24157;SDS011;12316;50.904;4.200;2022-10-31T09:28:11;15.88;;;11.13;;
24157;SDS011;12316;50.904;4.200;2022-10-31T09:30:37;14.75;;;10.75;;
24157;SDS011;12316;50.904;4.200;2022-10-31T09:33:11;15.32;;;11.32;;
24157;SDS011;12316;50.904;4.200;2022-10-31T09:35:38;14.27;;;11.32;;
24157;SDS011;12316;50.904;4.200;2022-10-31T09:38:14;16.05;;;11.80;;
24157;SDS011;12316;50.904;4.200;2022-10-31T09:40:45;14.60;;;11.20;;
24157;SDS011;12316;50.904;4.200;2022-10-31T09:57:32;16.75;;;11.30;;
24157;SDS011;12316;50.904;4.200;2022-10-31T10:00:00;25.35;;;13.40;;
24157;SDS011;12316;50.904;4.200;2022-10-31T10:03:05;20.05;;;11.98;;
24157;SDS011;12316;50.904;4.200;2022-10-31T10:08:22;14.50;;;11.25;;
24157;SDS011;12316;50.904;4.200;2022-10-31T10:16:11;14.38;;;10.85;;
24157;SDS011;12316;50.904;4.200;2022-10-31T10:21:35;16.38;;;11.50;;
24157;SDS011;12316;50.904;4.200;2022-10-31T10:27:10;16.05;;;11.43;;
24157;SDS011;12316;50.904;4.200;2022-10-31T10:32:28;16.65;;;10.75;;
24157;SDS011;12316;50.904;4.200;2022-10-31T10:35:30;14.23;;;10.80;;
24157;SDS011;12316;50.904;4.200;2022-10-31T10:38:04;17.55;;;11.45;;
24157;SDS011;12316;50.904;4.200;2022-10-31T10:40:40;14.43;;;10.98;;
24157;SDS011;12316;50.904;4.200;2022-10-31T10:43:18;15.02;;;10.23;;
24157;SDS011;12316;50.904;4.200;2022-10-31T10:46:12;17.10;;;10.23;;
24157;SDS011;12316;50.904;4.200;2022-10-31T10:51:58;13.57;;;10.15;;
24157;SDS011;12316;50.904;4.200;2022-10-31T10:57:19;15.15;;;10.55;;
24157;SDS011;12316;50.904;4.200;2022-10-31T10:59:45;12.40;;;10.02;;
24157;SDS011;12316;50.904;4.200;2022-10-31T11:04:50;15.05;;;9.45;;
24157;SDS011;12316;50.904;4.200;2022-10-31T11:07:20;12.95;;;9.50;;
24157;SDS011;12316;50.904;4.200;2022-10-31T11:09:46;14.20;;;9.32;;
24157;SDS011;12316;50.904;4.200;2022-10-31T11:14:52;13.32;;;8.55;;
24157;SDS011;12316;50.904;4.200;2022-10-31T11:22:30;11.73;;;7.78;;
24157;SDS011;12316;50.904;4.200;2022-10-31T11:24:55;14.48;;;8.45;;
24157;SDS011;12316;50.904;4.200;2022-10-31T11:27:24;15.48;;;8.65;;
24157;SDS011;12316;50.904;4.200;2022-10-31T11:29:51;16.30;;;9.05;;
24157;SDS011;12316;50.904;4.200;2022-10-31T11:32:26;15.05;;;9.02;;
24157;SDS011;12316;50.904;4.200;2022-10-31T11:34:57;18.50;;;8.80;;
24157;SDS011;12316;50.904;4.200;2022-10-31T11:37:26;16.88;;;8.77;;
24157;SDS011;12316;50.904;4.200;2022-10-31T11:39:54;13.68;;;9.52;;
24157;SDS011;12316;50.904;4.200;2022-10-31T11:42:27;16.27;;;9.27;;
24157;SDS011;12316;50.904;4.200;2022-10-31T11:44:55;15.73;;;9.53;;
24157;SDS011;12316;50.904;4.200;2022-10-31T11:47:30;17.65;;;9.52;;
24157;SDS011;12316;50.904;4.200;2022-10-31T11:49:57;18.30;;;9.35;;
24157;SDS011;12316;50.904;4.200;2022-10-31T11:52:36;16.65;;;9.23;;
24157;SDS011;12316;50.904;4.200;2022-10-31T11:57:50;13.45;;;9.10;;
24157;SDS011;12316;50.904;4.200;2022-10-31T12:00:21;19.98;;;9.63;;
24157;SDS011;12316;50.904;4.200;2022-10-31T12:06:03;18.23;;;9.38;;
24157;SDS011;12316;50.904;4.200;2022-10-31T12:08:31;17.45;;;9.65;;
24157;SDS011;12316;50.904;4.200;2022-10-31T12:11:11;15.15;;;8.68;;
24157;SDS011;12316;50.904;4.200;2022-10-31T12:16:42;12.88;;;9.38;;
24157;SDS011;12316;50.904;4.200;2022-10-31T12:19:35;14.63;;;9.35;;
24157;SDS011;12316;50.904;4.200;2022-10-31T12:30:51;14.70;;;8.70;;
24157;SDS011;12316;50.904;4.200;2022-10-31T12:33:53;17.70;;;9.48;;
24157;SDS011;12316;50.904;4.200;2022-10-31T12:39:33;19.02;;;8.32;;
24157;SDS011;12316;50.904;4.200;2022-10-31T12:42:29;15.63;;;8.07;;
24157;SDS011;12316;50.904;4.200;2022-10-31T12:53:52;12.70;;;8.00;;
24157;SDS011;12316;50.904;4.200;2022-10-31T13:01:38;14.13;;;7.63;;
24157;SDS011;12316;50.904;4.200;2022-10-31T13:07:05;16.27;;;7.93;;
24157;SDS011;12316;50.904;4.200;2022-10-31T13:09:42;17.85;;;7.70;;
24157;SDS011;12316;50.904;4.200;2022-10-31T13:12:27;15.57;;;7.82;;
24157;SDS011;12316;50.904;4.200;2022-10-31T13:15:41;13.82;;;7.88;;
24157;SDS011;12316;50.904;4.200;2022-10-31T13:17:59;13.63;;;7.63;;
24157;SDS011;12316;50.904;4.200;2022-10-31T13:20:31;13.27;;;7.55;;
24157;SDS011;12316;50.904;4.200;2022-10-31T13:25:41;14.10;;;7.73;;
24157;SDS011;12316;50.904;4.200;2022-10-31T13:31:00;13.90;;;7.63;;
24157;SDS011;12316;50.904;4.200;2022-10-31T13:33:31;15.60;;;7.93;;
24157;SDS011;12316;50.904;4.200;2022-10-31T13:44:47;17.75;;;7.80;;
24157;SDS011;12316;50.904;4.200;2022-10-31T13:47:54;16.25;;;7.70;;
24157;SDS011;12316;50.904;4.200;2022-10-31T13:50:28;15.63;;;7.75;;
24157;SDS011;12316;50.904;4.200;2022-10-31T13:55:49;14.48;;;7.22;;
24157;SDS011;12316;50.904;4.200;2022-10-31T13:58:30;16.20;;;7.20;;
24157;SDS011;12316;50.904;4.200;2022-10-31T14:03:43;16.05;;;7.55;;
24157;SDS011;12316;50.904;4.200;2022-10-31T14:06:11;14.38;;;7.57;;
24157;SDS011;12316;50.904;4.200;2022-10-31T14:08:41;14.25;;;6.80;;
24157;SDS011;12316;50.904;4.200;2022-10-31T14:11:25;15.70;;;6.82;;
24157;SDS011;12316;50.904;4.200;2022-10-31T14:13:53;18.35;;;7.13;;
24157;SDS011;12316;50.904;4.200;2022-10-31T14:18:56;13.77;;;7.00;;
24157;SDS011;12316;50.904;4.200;2022-10-31T14:21:31;13.15;;;6.65;;
24157;SDS011;12316;50.904;4.200;2022-10-31T14:24:29;12.15;;;6.63;;
24157;SDS011;12316;50.904;4.200;2022-10-31T14:29:43;16.33;;;7.05;;
24157;SDS011;12316;50.904;4.200;2022-10-31T14:34:43;15.70;;;7.25;;
24157;SDS011;12316;50.904;4.200;2022-10-31T14:46:10;15.50;;;7.10;;
24157;SDS011;12316;50.904;4.200;2022-10-31T14:51:36;12.88;;;6.40;;
24157;SDS011;12316;50.904;4.200;2022-10-31T14:54:17;15.40;;;6.55;;
24157;SDS011;12316;50.904;4.200;2022-10-31T14:56:51;13.45;;;6.95;;
24157;SDS011;12316;50.904;4.200;2022-10-31T14:59:21;14.35;;;6.50;;
24157;SDS011;12316;50.904;4.200;2022-10-31T15:02:39;16.48;;;7.20;;
24157;SDS011;12316;50.904;4.200;2022-10-31T15:04:52;16.38;;;7.10;;
24157;SDS011;12316;50.904;4.200;2022-10-31T15:07:21;17.75;;;6.97;;
24157;SDS011;12316;50.904;4.200;2022-10-31T15:10:00;14.30;;;5.97;;
24157;SDS011;12316;50.904;4.200;2022-10-31T15:12:32;14.57;;;6.43;;
24157;SDS011;12316;50.904;4.200;2022-10-31T15:15:14;12.20;;;6.20;;
24157;SDS011;12316;50.904;4.200;2022-10-31T15:17:53;17.52;;;6.03;;
24157;SDS011;12316;50.904;4.200;2022-10-31T15:20:22;14.52;;;5.95;;
24157;SDS011;12316;50.904;4.200;2022-10-31T15:22:51;12.55;;;5.32;;
24157;SDS011;12316;50.904;4.200;2022-10-31T15:25:22;13.35;;;5.40;;
24157;SDS011;12316;50.904;4.200;2022-10-31T15:27:50;14.52;;;5.72;;
24157;SDS011;12316;50.904;4.200;2022-10-31T15:30:18;16.20;;;5.45;;
24157;SDS011;12316;50.904;4.200;2022-10-31T15:32:50;12.13;;;5.30;;
24157;SDS011;12316;50.904;4.200;2022-10-31T15:35:20;9.65;;;5.20;;
24157;SDS011;12316;50.904;4.200;2022-10-31T15:37:53;12.95;;;5.50;;
24157;SDS011;12316;50.904;4.200;2022-10-31T15:40:20;13.05;;;5.38;;
24157;SDS011;12316;50.904;4.200;2022-10-31T15:42:53;12.57;;;5.40;;
24157;SDS011;12316;50.904;4.200;2022-10-31T15:45:29;15.48;;;6.40;;
24157;SDS011;12316;50.904;4.200;2022-10-31T15:47:55;15.20;;;6.22;;
24157;SDS011;12316;50.904;4.200;2022-10-31T15:53:01;11.75;;;5.78;;
24157;SDS011;12316;50.904;4.200;2022-10-31T15:55:29;13.35;;;5.63;;
24157;SDS011;12316;50.904;4.200;2022-10-31T15:57:59;14.13;;;5.85;;
24157;SDS011;12316;50.904;4.200;2022-10-31T16:00:36;11.93;;;5.82;;
24157;SDS011;12316;50.904;4.200;2022-10-31T16:05:47;13.65;;;7.25;;
24157;SDS011;12316;50.904;4.200;2022-10-31T16:10:51;12.93;;;6.70;;
24157;SDS011;12316;50.904;4.200;2022-10-31T16:13:17;14.55;;;7.28;;
24157;SDS011;12316;50.904;4.200;2022-10-31T16:15:53;14.07;;;7.45;;
24157;SDS011;12316;50.904;4.200;2022-10-31T16:18:22;15.80;;;8.02;;
24157;SDS011;12316;50.904;4.200;2022-10-31T16:20:50;12.73;;;7.20;;
24157;SDS011;12316;50.904;4.200;2022-10-31T16:23:17;13.02;;;7.18;;
24157;SDS011;12316;50.904;4.200;2022-10-31T16:25:45;14.60;;;7.30;;
24157;SDS011;12316;50.904;4.200;2022-10-31T16:28:19;16.08;;;7.10;;
24157;SDS011;12316;50.904;4.200;2022-10-31T16:30:50;14.95;;;6.50;;
24157;SDS011;12316;50.904;4.200;2022-10-31T16:33:25;16.73;;;6.93;;
24157;SDS011;12316;50.904;4.200;2022-10-31T16:38:27;15.68;;;7.57;;
24157;SDS011;12316;50.904;4.200;2022-10-31T16:40:52;15.95;;;7.50;;
24157;SDS011;12316;50.904;4.200;2022-10-31T16:43:19;16.63;;;8.48;;
24157;SDS011;12316;50.904;4.200;2022-10-31T16:45:48;15.23;;;8.32;;
24157;SDS011;12316;50.904;4.200;2022-10-31T16:48:16;17.27;;;8.65;;
24157;SDS011;12316;50.904;4.200;2022-10-31T16:50:46;18.60;;;8.50;;
24157;SDS011;12316;50.904;4.200;2022-10-31T16:53:13;20.10;;;8.30;;
24157;SDS011;12316;50.904;4.200;2022-10-31T16:58:20;21.58;;;8.85;;
24157;SDS011;12316;50.904;4.200;2022-10-31T17:00:48;22.45;;;8.50;;
24157;SDS011;12316;50.904;4.200;2022-10-31T17:03:15;23.02;;;8.52;;
24157;SDS011;12316;50.904;4.200;2022-10-31T17:05:40;19.15;;;8.48;;
24157;SDS011;12316;50.904;4.200;2022-10-31T17:08:06;15.63;;;7.50;;
24157;SDS011;12316;50.904;4.200;2022-10-31T17:10:32;21.25;;;8.23;;
24157;SDS011;12316;50.904;4.200;2022-10-31T17:12:58;17.63;;;8.32;;
24157;SDS011;12316;50.904;4.200;2022-10-31T17:15:27;16.92;;;7.85;;
24157;SDS011;12316;50.904;4.200;2022-10-31T17:17:57;17.92;;;7.90;;
24157;SDS011;12316;50.904;4.200;2022-10-31T17:20:24;15.77;;;7.60;;
24157;SDS011;12316;50.904;4.200;2022-10-31T17:22:52;15.10;;;7.38;;
24157;SDS011;12316;50.904;4.200;2022-10-31T17:25:20;14.88;;;6.70;;
24157;SDS011;12316;50.904;4.200;2022-10-31T17:27:47;13.00;;;6.93;;
24157;SDS011;12316;50.904;4.200;2022-10-31T17:30:13;17.50;;;6.32;;
24157;SDS011;12316;50.904;4.200;2022-10-31T17:32:40;13.25;;;6.45;;
24157;SDS011;12316;50.904;4.200;2022-10-31T17:35:07;15.20;;;7.13;;
24157;SDS011;12316;50.904;4.200;2022-10-31T17:37:33;19.17;;;6.75;;